Riverside, CA (92509)

2:25 AM PDT on April 29, 2017 (GMT -0700)
Indian Hills | | Change Station
Active Advisory: High Wind Warning

Elev 1070 ft 33.99 °N, 117.45 °W | Updated 11 minutes ago

Clear
Clear
67.1 °F
Feels Like 67.1 °F
N
0.0
Wind Variable Wind from NE
Gusts 20.0 mph

Today
High -- | Low -- °F
--% Chance of Precip.
Yesterday
High -- | Low -- °F
Precip. -- in
Pressure 29.89 in
Visibility 10.0 miles
Clouds Clear
Dew Point 18 °F
Humidity 15%
Rainfall 0.00 in
Snow Depth Not available.
6:02 AM 7:32 PM
Waxing Crescent, 12% visible
METAR KRAL 290853Z AUTO 05011G21KT 10SM CLR 21/M10 A2993 RMK AO2 SLP121 T02061100 51029
Pressure 29.89 in
Visibility 10.0 miles
Clouds Clear
Dew Point 18 °F
Humidity 15%
Rainfall 0.00 in
Snow Depth Not available.
6:02 AM 7:32 PM
Waxing Crescent, 12% visible
METAR KRAL 290853Z AUTO 05011G21KT 10SM CLR 21/M10 A2993 RMK AO2 SLP121 T02061100 51029

Get Your Daily Forecast Email!

Thanks for signing up!

Be on the lookout for a verification email in your inbox.

You'll start receiving severe weather alerts in your inbox..

×

10-Day Weather Forecast

Almanac

Astronomy

Apr. 29, 2017 Rise Set
Actual Time
Civil Twilight
Nautical Twilight
Astronomical Twilight
Moon
Length of Visible Light
Length of Day
Tomorrow will be .
, % of the Moon is Illuminated

Today's Extremes

State Highs State Lows

Community

WunderPhotos

WunderBlog® & News

Nearby

Air Quality

  Air Quality AQ Index Pollutant
Not available.

Snow Depth

Station Depth Elevation

Earthquake Activity

City Distance Mag. Time & Date
Minimum magnitude displayed is 2.5.

Coastal Water Temperatures

Place Temperature

Stations

Nearby Weather Stations

Station Location Temp. Windchill Dew Point Humidity Wind Precip. Elev Updated Type
                   

Watches & Warnings

High Wind Warning
Issued: 9:17 PM PDT Apr. 28, 2017 – National Weather Service

... High Wind Warning remains in effect until 2 PM PDT Saturday...

* winds... north to northeast winds increasing to 25 to 35 mph
tonight, with gusts from 50 to 60 mph. Isolated gusts on
ridgetops and immediately below canyons up to 65 mph.

* Timing... the strongest winds will occur late tonight through
midday Saturday.

* Locations... strongest winds along Interstate 15 from Cajon Pass
to the inland Empire and parts of inland Orange County,
especially near the Santa Ana Mountains.

* Impacts... sudden, strong cross-winds affecting high-profile
vehicles. Possible tree and utility line damage. Downed Palm
fronds.

* Outlook... winds will diminish rapidly Saturday afternoon.

* Reports... please send reports of strong winds and wind damage
to the National Weather Service via our facebook and twitter
feeds and online.

Precautionary/preparedness actions...

A High Wind Warning means a hazardous high wind event is expected
or occurring. Sustained wind speeds of at least 40 mph or gusts
of 58 mph or more can lead to property damage.